sensor_id;sensor_type;location;lat;lon;timestamp;P1;durP1;ratioP1;P2;durP2;ratioP2
10463;SDS011;5279;42.048;24.638;2023-09-18T00:01:47;7.53;;;3.60;;
10463;SDS011;5279;42.048;24.638;2023-09-18T00:04:14;5.87;;;3.97;;
10463;SDS011;5279;42.048;24.638;2023-09-18T00:06:41;5.90;;;3.80;;
10463;SDS011;5279;42.048;24.638;2023-09-18T00:09:10;3.50;;;3.03;;
10463;SDS011;5279;42.048;24.638;2023-09-18T00:11:38;5.97;;;2.83;;
10463;SDS011;5279;42.048;24.638;2023-09-18T00:14:08;6.37;;;3.60;;
10463;SDS011;5279;42.048;24.638;2023-09-18T00:16:36;6.07;;;3.17;;
10463;SDS011;5279;42.048;24.638;2023-09-18T00:19:03;7.53;;;3.30;;
10463;SDS011;5279;42.048;24.638;2023-09-18T00:21:31;6.17;;;3.27;;
10463;SDS011;5279;42.048;24.638;2023-09-18T00:23:58;5.00;;;3.00;;
10463;SDS011;5279;42.048;24.638;2023-09-18T00:26:26;6.57;;;3.33;;
10463;SDS011;5279;42.048;24.638;2023-09-18T00:28:53;9.10;;;3.90;;
10463;SDS011;5279;42.048;24.638;2023-09-18T00:31:20;4.40;;;3.20;;
10463;SDS011;5279;42.048;24.638;2023-09-18T00:33:47;3.77;;;2.93;;
10463;SDS011;5279;42.048;24.638;2023-09-18T00:36:14;3.73;;;2.83;;
10463;SDS011;5279;42.048;24.638;2023-09-18T00:38:41;5.60;;;3.30;;
10463;SDS011;5279;42.048;24.638;2023-09-18T00:41:09;3.13;;;2.80;;
10463;SDS011;5279;42.048;24.638;2023-09-18T00:43:37;3.30;;;3.00;;
10463;SDS011;5279;42.048;24.638;2023-09-18T00:46:04;4.20;;;2.90;;
10463;SDS011;5279;42.048;24.638;2023-09-18T00:48:31;4.73;;;2.73;;
10463;SDS011;5279;42.048;24.638;2023-09-18T00:50:58;5.43;;;3.43;;
10463;SDS011;5279;42.048;24.638;2023-09-18T00:53:25;3.90;;;3.07;;
10463;SDS011;5279;42.048;24.638;2023-09-18T00:55:53;3.40;;;2.93;;
10463;SDS011;5279;42.048;24.638;2023-09-18T00:58:21;3.87;;;3.10;;
10463;SDS011;5279;42.048;24.638;2023-09-18T01:00:50;8.23;;;3.07;;
10463;SDS011;5279;42.048;24.638;2023-09-18T01:03:17;5.40;;;3.60;;
10463;SDS011;5279;42.048;24.638;2023-09-18T01:05:45;8.53;;;3.30;;
10463;SDS011;5279;42.048;24.638;2023-09-18T01:08:12;4.30;;;3.20;;
10463;SDS011;5279;42.048;24.638;2023-09-18T01:10:40;3.70;;;3.40;;
10463;SDS011;5279;42.048;24.638;2023-09-18T01:13:15;3.87;;;2.93;;
10463;SDS011;5279;42.048;24.638;2023-09-18T01:15:51;3.77;;;3.13;;
10463;SDS011;5279;42.048;24.638;2023-09-18T01:18:21;4.47;;;3.40;;
10463;SDS011;5279;42.048;24.638;2023-09-18T01:20:48;3.13;;;2.70;;
10463;SDS011;5279;42.048;24.638;2023-09-18T01:23:16;5.93;;;3.53;;
10463;SDS011;5279;42.048;24.638;2023-09-18T01:25:43;5.13;;;2.93;;
10463;SDS011;5279;42.048;24.638;2023-09-18T01:28:10;5.03;;;3.23;;
10463;SDS011;5279;42.048;24.638;2023-09-18T01:30:37;4.83;;;3.60;;
10463;SDS011;5279;42.048;24.638;2023-09-18T01:33:04;6.97;;;3.20;;
10463;SDS011;5279;42.048;24.638;2023-09-18T01:35:32;3.33;;;2.90;;
10463;SDS011;5279;42.048;24.638;2023-09-18T01:38:00;6.30;;;3.60;;
10463;SDS011;5279;42.048;24.638;2023-09-18T01:40:29;5.93;;;3.27;;
10463;SDS011;5279;42.048;24.638;2023-09-18T01:43:00;3.20;;;2.90;;
10463;SDS011;5279;42.048;24.638;2023-09-18T01:45:27;5.73;;;3.03;;
10463;SDS011;5279;42.048;24.638;2023-09-18T01:47:54;4.37;;;3.10;;
10463;SDS011;5279;42.048;24.638;2023-09-18T01:50:21;4.23;;;3.13;;
10463;SDS011;5279;42.048;24.638;2023-09-18T01:52:48;3.30;;;3.00;;
10463;SDS011;5279;42.048;24.638;2023-09-18T01:55:15;8.20;;;2.93;;
10463;SDS011;5279;42.048;24.638;2023-09-18T01:57:44;3.57;;;3.10;;
10463;SDS011;5279;42.048;24.638;2023-09-18T02:00:14;4.93;;;2.93;;
10463;SDS011;5279;42.048;24.638;2023-09-18T02:02:43;5.03;;;3.10;;
10463;SDS011;5279;42.048;24.638;2023-09-18T02:05:10;6.30;;;2.93;;
10463;SDS011;5279;42.048;24.638;2023-09-18T02:07:40;4.90;;;3.40;;
10463;SDS011;5279;42.048;24.638;2023-09-18T02:10:09;4.03;;;3.17;;
10463;SDS011;5279;42.048;24.638;2023-09-18T02:12:37;7.07;;;3.40;;
10463;SDS011;5279;42.048;24.638;2023-09-18T02:15:07;4.27;;;3.40;;
10463;SDS011;5279;42.048;24.638;2023-09-18T02:17:36;4.07;;;3.17;;
10463;SDS011;5279;42.048;24.638;2023-09-18T02:20:03;4.90;;;3.10;;
10463;SDS011;5279;42.048;24.638;2023-09-18T02:22:36;5.70;;;3.07;;
10463;SDS011;5279;42.048;24.638;2023-09-18T02:25:05;4.00;;;3.60;;
10463;SDS011;5279;42.048;24.638;2023-09-18T02:27:32;6.53;;;3.53;;
10463;SDS011;5279;42.048;24.638;2023-09-18T02:29:59;4.77;;;3.60;;
10463;SDS011;5279;42.048;24.638;2023-09-18T02:32:29;3.23;;;2.93;;
10463;SDS011;5279;42.048;24.638;2023-09-18T02:34:56;6.03;;;3.40;;
10463;SDS011;5279;42.048;24.638;2023-09-18T02:37:23;5.90;;;3.90;;
10463;SDS011;5279;42.048;24.638;2023-09-18T02:39:50;6.53;;;3.67;;
10463;SDS011;5279;42.048;24.638;2023-09-18T02:42:17;5.70;;;3.63;;
10463;SDS011;5279;42.048;24.638;2023-09-18T02:44:44;5.93;;;3.40;;
10463;SDS011;5279;42.048;24.638;2023-09-18T02:47:11;5.00;;;3.20;;
10463;SDS011;5279;42.048;24.638;2023-09-18T02:49:42;4.80;;;3.30;;
10463;SDS011;5279;42.048;24.638;2023-09-18T02:52:09;5.37;;;3.70;;
10463;SDS011;5279;42.048;24.638;2023-09-18T02:54:37;3.70;;;3.27;;
10463;SDS011;5279;42.048;24.638;2023-09-18T02:57:05;7.70;;;3.60;;
10463;SDS011;5279;42.048;24.638;2023-09-18T02:59:32;4.10;;;3.30;;
10463;SDS011;5279;42.048;24.638;2023-09-18T03:01:59;6.10;;;3.30;;
10463;SDS011;5279;42.048;24.638;2023-09-18T03:04:26;5.57;;;3.40;;
10463;SDS011;5279;42.048;24.638;2023-09-18T03:06:54;3.67;;;3.37;;
10463;SDS011;5279;42.048;24.638;2023-09-18T03:09:21;5.07;;;3.23;;
10463;SDS011;5279;42.048;24.638;2023-09-18T03:11:48;3.53;;;3.00;;
10463;SDS011;5279;42.048;24.638;2023-09-18T03:14:15;5.50;;;3.17;;
10463;SDS011;5279;42.048;24.638;2023-09-18T03:16:42;5.00;;;3.43;;
10463;SDS011;5279;42.048;24.638;2023-09-18T03:19:09;3.87;;;3.43;;
10463;SDS011;5279;42.048;24.638;2023-09-18T03:21:38;5.70;;;3.80;;
10463;SDS011;5279;42.048;24.638;2023-09-18T03:24:07;5.20;;;3.40;;
10463;SDS011;5279;42.048;24.638;2023-09-18T03:26:34;4.37;;;3.37;;
10463;SDS011;5279;42.048;24.638;2023-09-18T03:29:01;5.57;;;3.50;;
10463;SDS011;5279;42.048;24.638;2023-09-18T03:31:28;5.50;;;3.70;;
10463;SDS011;5279;42.048;24.638;2023-09-18T03:33:55;4.00;;;3.13;;
10463;SDS011;5279;42.048;24.638;2023-09-18T03:36:24;6.87;;;3.67;;
10463;SDS011;5279;42.048;24.638;2023-09-18T03:38:51;4.43;;;3.50;;
10463;SDS011;5279;42.048;24.638;2023-09-18T03:41:21;6.20;;;3.73;;
10463;SDS011;5279;42.048;24.638;2023-09-18T03:43:48;4.57;;;3.13;;
10463;SDS011;5279;42.048;24.638;2023-09-18T03:46:16;6.60;;;3.70;;
10463;SDS011;5279;42.048;24.638;2023-09-18T03:48:43;4.87;;;3.63;;
10463;SDS011;5279;42.048;24.638;2023-09-18T03:51:13;4.07;;;3.60;;
10463;SDS011;5279;42.048;24.638;2023-09-18T03:53:41;4.40;;;3.33;;
10463;SDS011;5279;42.048;24.638;2023-09-18T03:56:07;3.83;;;3.43;;
10463;SDS011;5279;42.048;24.638;2023-09-18T03:58:36;4.80;;;3.40;;
10463;SDS011;5279;42.048;24.638;2023-09-18T04:01:03;4.37;;;3.23;;
10463;SDS011;5279;42.048;24.638;2023-09-18T04:03:30;5.50;;;3.20;;
10463;SDS011;5279;42.048;24.638;2023-09-18T04:05:57;5.33;;;3.60;;
10463;SDS011;5279;42.048;24.638;2023-09-18T04:08:24;3.90;;;3.47;;
10463;SDS011;5279;42.048;24.638;2023-09-18T04:10:51;3.47;;;3.07;;
10463;SDS011;5279;42.048;24.638;2023-09-18T04:13:20;4.60;;;3.93;;
10463;SDS011;5279;42.048;24.638;2023-09-18T04:15:49;5.23;;;3.40;;
10463;SDS011;5279;42.048;24.638;2023-09-18T04:18:17;3.97;;;3.40;;
10463;SDS011;5279;42.048;24.638;2023-09-18T04:20:45;4.17;;;3.43;;
10463;SDS011;5279;42.048;24.638;2023-09-18T04:23:19;7.73;;;3.60;;
10463;SDS011;5279;42.048;24.638;2023-09-18T04:25:47;9.67;;;3.93;;
10463;SDS011;5279;42.048;24.638;2023-09-18T04:28:16;5.63;;;4.07;;
10463;SDS011;5279;42.048;24.638;2023-09-18T04:30:44;5.10;;;3.80;;
10463;SDS011;5279;42.048;24.638;2023-09-18T04:33:13;6.33;;;4.23;;
10463;SDS011;5279;42.048;24.638;2023-09-18T04:35:40;5.00;;;3.80;;
10463;SDS011;5279;42.048;24.638;2023-09-18T04:38:07;4.40;;;3.60;;
10463;SDS011;5279;42.048;24.638;2023-09-18T04:40:35;4.77;;;3.93;;
10463;SDS011;5279;42.048;24.638;2023-09-18T04:43:03;5.53;;;3.67;;
10463;SDS011;5279;42.048;24.638;2023-09-18T04:45:30;4.17;;;3.77;;
10463;SDS011;5279;42.048;24.638;2023-09-18T04:47:58;6.33;;;3.93;;
10463;SDS011;5279;42.048;24.638;2023-09-18T04:50:26;7.57;;;3.53;;
10463;SDS011;5279;42.048;24.638;2023-09-18T04:52:53;7.07;;;3.93;;
10463;SDS011;5279;42.048;24.638;2023-09-18T04:55:21;4.30;;;3.63;;
10463;SDS011;5279;42.048;24.638;2023-09-18T04:57:50;4.57;;;3.33;;
10463;SDS011;5279;42.048;24.638;2023-09-18T05:00:18;5.30;;;3.57;;
10463;SDS011;5279;42.048;24.638;2023-09-18T05:02:48;5.63;;;3.67;;
10463;SDS011;5279;42.048;24.638;2023-09-18T05:05:15;5.57;;;3.37;;
10463;SDS011;5279;42.048;24.638;2023-09-18T05:07:44;5.90;;;4.00;;
10463;SDS011;5279;42.048;24.638;2023-09-18T05:10:11;4.73;;;3.40;;
10463;SDS011;5279;42.048;24.638;2023-09-18T05:12:38;3.90;;;3.50;;
10463;SDS011;5279;42.048;24.638;2023-09-18T05:15:06;4.53;;;3.40;;
10463;SDS011;5279;42.048;24.638;2023-09-18T05:17:41;4.13;;;3.63;;
10463;SDS011;5279;42.048;24.638;2023-09-18T05:20:09;4.13;;;3.23;;
10463;SDS011;5279;42.048;24.638;2023-09-18T05:22:38;10.87;;;4.53;;
10463;SDS011;5279;42.048;24.638;2023-09-18T05:25:07;7.47;;;3.63;;
10463;SDS011;5279;42.048;24.638;2023-09-18T05:27:35;6.83;;;3.50;;
10463;SDS011;5279;42.048;24.638;2023-09-18T05:30:09;6.87;;;3.63;;
10463;SDS011;5279;42.048;24.638;2023-09-18T05:32:37;8.53;;;4.50;;
10463;SDS011;5279;42.048;24.638;2023-09-18T05:35:05;7.20;;;4.20;;
10463;SDS011;5279;42.048;24.638;2023-09-18T05:37:35;6.40;;;3.93;;
10463;SDS011;5279;42.048;24.638;2023-09-18T05:40:02;4.10;;;3.70;;
10463;SDS011;5279;42.048;24.638;2023-09-18T05:42:31;3.87;;;3.47;;
10463;SDS011;5279;42.048;24.638;2023-09-18T05:44:58;6.87;;;3.77;;
10463;SDS011;5279;42.048;24.638;2023-09-18T05:47:25;7.03;;;4.70;;
10463;SDS011;5279;42.048;24.638;2023-09-18T05:49:52;4.70;;;4.10;;
10463;SDS011;5279;42.048;24.638;2023-09-18T05:52:19;5.77;;;4.07;;
10463;SDS011;5279;42.048;24.638;2023-09-18T05:54:47;6.40;;;4.40;;
10463;SDS011;5279;42.048;24.638;2023-09-18T05:57:14;7.43;;;4.40;;
10463;SDS011;5279;42.048;24.638;2023-09-18T05:59:43;7.90;;;4.67;;
10463;SDS011;5279;42.048;24.638;2023-09-18T06:02:10;9.53;;;5.07;;
10463;SDS011;5279;42.048;24.638;2023-09-18T06:04:37;6.73;;;4.00;;
10463;SDS011;5279;42.048;24.638;2023-09-18T06:07:04;8.37;;;4.13;;
10463;SDS011;5279;42.048;24.638;2023-09-18T06:09:31;5.73;;;4.00;;
10463;SDS011;5279;42.048;24.638;2023-09-18T06:11:58;8.60;;;4.57;;
10463;SDS011;5279;42.048;24.638;2023-09-18T06:14:26;5.30;;;4.20;;
10463;SDS011;5279;42.048;24.638;2023-09-18T06:16:54;5.47;;;4.27;;
10463;SDS011;5279;42.048;24.638;2023-09-18T06:19:21;6.40;;;4.80;;
10463;SDS011;5279;42.048;24.638;2023-09-18T06:21:48;6.93;;;4.60;;
10463;SDS011;5279;42.048;24.638;2023-09-18T06:24:15;7.10;;;4.83;;
10463;SDS011;5279;42.048;24.638;2023-09-18T06:26:42;7.40;;;4.73;;
10463;SDS011;5279;42.048;24.638;2023-09-18T06:29:09;6.93;;;4.70;;
10463;SDS011;5279;42.048;24.638;2023-09-18T06:31:36;6.20;;;4.17;;
10463;SDS011;5279;42.048;24.638;2023-09-18T06:34:04;8.30;;;4.87;;
10463;SDS011;5279;42.048;24.638;2023-09-18T06:36:31;6.93;;;4.90;;
10463;SDS011;5279;42.048;24.638;2023-09-18T06:38:58;9.40;;;4.60;;
10463;SDS011;5279;42.048;24.638;2023-09-18T06:41:25;9.37;;;5.57;;
10463;SDS011;5279;42.048;24.638;2023-09-18T06:43:52;6.37;;;5.77;;
10463;SDS011;5279;42.048;24.638;2023-09-18T06:46:18;7.13;;;5.70;;
10463;SDS011;5279;42.048;24.638;2023-09-18T06:48:45;8.20;;;6.10;;
10463;SDS011;5279;42.048;24.638;2023-09-18T06:51:15;7.80;;;5.77;;
10463;SDS011;5279;42.048;24.638;2023-09-18T06:53:43;5.83;;;5.13;;
10463;SDS011;5279;42.048;24.638;2023-09-18T06:56:10;6.07;;;4.07;;
10463;SDS011;5279;42.048;24.638;2023-09-18T06:58:37;5.50;;;3.70;;
10463;SDS011;5279;42.048;24.638;2023-09-18T07:01:04;5.27;;;3.73;;
10463;SDS011;5279;42.048;24.638;2023-09-18T07:03:34;14.33;;;5.27;;
10463;SDS011;5279;42.048;24.638;2023-09-18T07:06:01;10.57;;;4.23;;
10463;SDS011;5279;42.048;24.638;2023-09-18T07:08:30;3.77;;;2.50;;
10463;SDS011;5279;42.048;24.638;2023-09-18T07:10:57;3.97;;;2.70;;
10463;SDS011;5279;42.048;24.638;2023-09-18T07:13:24;5.63;;;2.67;;
10463;SDS011;5279;42.048;24.638;2023-09-18T07:15:52;3.57;;;2.50;;
10463;SDS011;5279;42.048;24.638;2023-09-18T07:18:19;4.20;;;2.70;;
10463;SDS011;5279;42.048;24.638;2023-09-18T07:20:46;5.47;;;2.40;;
10463;SDS011;5279;42.048;24.638;2023-09-18T07:23:13;3.13;;;2.20;;
10463;SDS011;5279;42.048;24.638;2023-09-18T07:25:41;7.13;;;2.50;;
10463;SDS011;5279;42.048;24.638;2023-09-18T07:28:08;4.00;;;2.67;;
10463;SDS011;5279;42.048;24.638;2023-09-18T07:30:40;2.20;;;2.00;;
10463;SDS011;5279;42.048;24.638;2023-09-18T07:33:09;4.00;;;2.57;;
10463;SDS011;5279;42.048;24.638;2023-09-18T07:35:36;4.67;;;2.40;;
10463;SDS011;5279;42.048;24.638;2023-09-18T07:38:03;5.47;;;2.73;;
10463;SDS011;5279;42.048;24.638;2023-09-18T07:40:30;3.57;;;2.33;;
10463;SDS011;5279;42.048;24.638;2023-09-18T07:42:58;4.47;;;3.10;;
10463;SDS011;5279;42.048;24.638;2023-09-18T07:45:25;3.20;;;2.27;;
10463;SDS011;5279;42.048;24.638;2023-09-18T07:47:52;5.50;;;2.60;;
10463;SDS011;5279;42.048;24.638;2023-09-18T07:50:19;7.63;;;3.40;;
10463;SDS011;5279;42.048;24.638;2023-09-18T07:52:48;3.10;;;2.23;;
10463;SDS011;5279;42.048;24.638;2023-09-18T07:55:15;3.17;;;2.40;;
10463;SDS011;5279;42.048;24.638;2023-09-18T07:57:42;4.73;;;2.70;;
10463;SDS011;5279;42.048;24.638;2023-09-18T08:00:12;6.67;;;2.70;;
10463;SDS011;5279;42.048;24.638;2023-09-18T08:02:41;3.47;;;2.83;;
10463;SDS011;5279;42.048;24.638;2023-09-18T08:05:08;4.37;;;2.80;;
10463;SDS011;5279;42.048;24.638;2023-09-18T08:07:35;4.23;;;2.83;;
10463;SDS011;5279;42.048;24.638;2023-09-18T08:10:03;3.93;;;2.70;;
10463;SDS011;5279;42.048;24.638;2023-09-18T08:12:33;4.53;;;3.13;;
10463;SDS011;5279;42.048;24.638;2023-09-18T08:15:00;3.30;;;2.87;;
10463;SDS011;5279;42.048;24.638;2023-09-18T08:17:29;9.13;;;5.87;;
10463;SDS011;5279;42.048;24.638;2023-09-18T08:19:56;3.67;;;3.00;;
10463;SDS011;5279;42.048;24.638;2023-09-18T08:22:23;3.50;;;2.93;;
10463;SDS011;5279;42.048;24.638;2023-09-18T08:24:50;3.30;;;2.73;;
10463;SDS011;5279;42.048;24.638;2023-09-18T08:27:18;3.97;;;2.70;;
10463;SDS011;5279;42.048;24.638;2023-09-18T08:29:45;5.90;;;4.80;;
10463;SDS011;5279;42.048;24.638;2023-09-18T08:32:12;16.00;;;10.00;;
10463;SDS011;5279;42.048;24.638;2023-09-18T08:34:41;5.40;;;4.17;;
10463;SDS011;5279;42.048;24.638;2023-09-18T08:37:08;5.23;;;3.40;;
10463;SDS011;5279;42.048;24.638;2023-09-18T08:39:38;7.77;;;3.33;;
10463;SDS011;5279;42.048;24.638;2023-09-18T08:42:05;3.63;;;3.10;;
10463;SDS011;5279;42.048;24.638;2023-09-18T08:44:35;34.10;;;16.17;;
10463;SDS011;5279;42.048;24.638;2023-09-18T08:47:06;21.20;;;11.33;;
10463;SDS011;5279;42.048;24.638;2023-09-18T08:49:36;6.10;;;3.70;;
10463;SDS011;5279;42.048;24.638;2023-09-18T08:52:05;3.30;;;2.97;;
10463;SDS011;5279;42.048;24.638;2023-09-18T08:54:33;4.47;;;2.80;;
10463;SDS011;5279;42.048;24.638;2023-09-18T08:57:00;4.17;;;2.27;;
10463;SDS011;5279;42.048;24.638;2023-09-18T08:59:27;4.27;;;2.70;;
10463;SDS011;5279;42.048;24.638;2023-09-18T09:01:55;2.57;;;2.37;;
10463;SDS011;5279;42.048;24.638;2023-09-18T09:04:25;2.80;;;2.60;;
10463;SDS011;5279;42.048;24.638;2023-09-18T09:06:52;3.70;;;2.27;;
10463;SDS011;5279;42.048;24.638;2023-09-18T09:09:24;4.40;;;2.40;;
10463;SDS011;5279;42.048;24.638;2023-09-18T09:11:51;3.20;;;2.10;;
10463;SDS011;5279;42.048;24.638;2023-09-18T09:14:18;3.78;;;2.10;;
10463;SDS011;5279;42.048;24.638;2023-09-18T09:16:47;4.20;;;2.50;;
10463;SDS011;5279;42.048;24.638;2023-09-18T09:19:15;5.00;;;2.40;;
10463;SDS011;5279;42.048;24.638;2023-09-18T09:21:42;3.70;;;2.17;;
10463;SDS011;5279;42.048;24.638;2023-09-18T09:24:11;3.03;;;2.10;;
10463;SDS011;5279;42.048;24.638;2023-09-18T09:26:41;4.50;;;2.40;;
10463;SDS011;5279;42.048;24.638;2023-09-18T09:29:14;3.70;;;2.43;;
10463;SDS011;5279;42.048;24.638;2023-09-18T09:31:43;3.33;;;2.40;;
10463;SDS011;5279;42.048;24.638;2023-09-18T09:34:10;5.73;;;2.60;;
10463;SDS011;5279;42.048;24.638;2023-09-18T09:36:51;4.70;;;3.20;;
10463;SDS011;5279;42.048;24.638;2023-09-18T09:39:18;4.63;;;2.73;;
10463;SDS011;5279;42.048;24.638;2023-09-18T09:41:48;2.45;;;2.25;;
10463;SDS011;5279;42.048;24.638;2023-09-18T09:44:15;2.88;;;2.00;;
10463;SDS011;5279;42.048;24.638;2023-09-18T09:46:46;3.00;;;2.22;;
10463;SDS011;5279;42.048;24.638;2023-09-18T09:49:16;4.00;;;1.80;;
10463;SDS011;5279;42.048;24.638;2023-09-18T09:51:45;2.85;;;2.10;;
10463;SDS011;5279;42.048;24.638;2023-09-18T09:54:18;2.38;;;2.10;;
10463;SDS011;5279;42.048;24.638;2023-09-18T09:57:06;2.00;;;1.90;;
10463;SDS011;5279;42.048;24.638;2023-09-18T09:59:33;2.85;;;2.25;;
10463;SDS011;5279;42.048;24.638;2023-09-18T10:02:00;4.05;;;2.33;;
10463;SDS011;5279;42.048;24.638;2023-09-18T10:04:28;2.35;;;2.05;;
10463;SDS011;5279;42.048;24.638;2023-09-18T10:07:04;3.88;;;2.10;;
10463;SDS011;5279;42.048;24.638;2023-09-18T10:09:34;2.08;;;1.90;;
10463;SDS011;5279;42.048;24.638;2023-09-18T10:12:02;2.20;;;1.90;;
10463;SDS011;5279;42.048;24.638;2023-09-18T10:14:35;2.05;;;1.80;;
10463;SDS011;5279;42.048;24.638;2023-09-18T10:17:06;3.08;;;1.83;;
10463;SDS011;5279;42.048;24.638;2023-09-18T10:19:45;1.88;;;1.77;;
10463;SDS011;5279;42.048;24.638;2023-09-18T10:22:17;2.03;;;1.73;;
10463;SDS011;5279;42.048;24.638;2023-09-18T10:24:53;1.83;;;1.73;;
10463;SDS011;5279;42.048;24.638;2023-09-18T10:27:26;2.58;;;1.70;;
10463;SDS011;5279;42.048;24.638;2023-09-18T10:29:55;1.70;;;1.60;;
10463;SDS011;5279;42.048;24.638;2023-09-18T10:32:22;2.45;;;1.70;;
10463;SDS011;5279;42.048;24.638;2023-09-18T10:34:53;2.97;;;2.03;;
10463;SDS011;5279;42.048;24.638;2023-09-18T10:37:20;2.22;;;1.67;;
10463;SDS011;5279;42.048;24.638;2023-09-18T10:39:50;1.70;;;1.60;;
10463;SDS011;5279;42.048;24.638;2023-09-18T10:42:22;3.35;;;1.90;;
10463;SDS011;5279;42.048;24.638;2023-09-18T10:44:49;3.08;;;1.90;;
10463;SDS011;5279;42.048;24.638;2023-09-18T10:47:18;1.88;;;1.60;;
10463;SDS011;5279;42.048;24.638;2023-09-18T10:49:46;1.70;;;1.60;;
10463;SDS011;5279;42.048;24.638;2023-09-18T10:52:15;2.55;;;1.55;;
10463;SDS011;5279;42.048;24.638;2023-09-18T10:54:42;1.63;;;1.50;;
10463;SDS011;5279;42.048;24.638;2023-09-18T10:57:08;1.73;;;1.60;;
10463;SDS011;5279;42.048;24.638;2023-09-18T10:59:43;1.77;;;1.40;;
10463;SDS011;5279;42.048;24.638;2023-09-18T11:02:13;4.10;;;2.35;;
10463;SDS011;5279;42.048;24.638;2023-09-18T11:04:42;3.10;;;1.70;;
10463;SDS011;5279;42.048;24.638;2023-09-18T11:07:18;1.48;;;1.38;;
10463;SDS011;5279;42.048;24.638;2023-09-18T11:09:46;1.63;;;1.52;;
10463;SDS011;5279;42.048;24.638;2023-09-18T11:12:16;2.85;;;1.42;;
10463;SDS011;5279;42.048;24.638;2023-09-18T11:14:44;2.17;;;1.48;;
10463;SDS011;5279;42.048;24.638;2023-09-18T11:17:31;2.55;;;1.45;;
10463;SDS011;5279;42.048;24.638;2023-09-18T11:20:05;2.38;;;1.50;;
10463;SDS011;5279;42.048;24.638;2023-09-18T11:22:36;1.58;;;1.48;;
10463;SDS011;5279;42.048;24.638;2023-09-18T11:27:56;1.65;;;1.38;;
10463;SDS011;5279;42.048;24.638;2023-09-18T11:30:23;1.90;;;1.25;;
10463;SDS011;5279;42.048;24.638;2023-09-18T11:32:51;1.50;;;1.40;;
10463;SDS011;5279;42.048;24.638;2023-09-18T11:35:23;1.60;;;1.40;;
10463;SDS011;5279;42.048;24.638;2023-09-18T11:38:06;2.30;;;1.17;;
10463;SDS011;5279;42.048;24.638;2023-09-18T11:40:35;1.33;;;1.23;;
10463;SDS011;5279;42.048;24.638;2023-09-18T11:45:56;1.67;;;1.40;;
10463;SDS011;5279;42.048;24.638;2023-09-18T11:48:25;2.20;;;1.50;;
10463;SDS011;5279;42.048;24.638;2023-09-18T11:51:03;2.50;;;1.50;;
10463;SDS011;5279;42.048;24.638;2023-09-18T11:53:40;1.77;;;1.45;;
10463;SDS011;5279;42.048;24.638;2023-09-18T11:56:10;1.42;;;1.30;;
10463;SDS011;5279;42.048;24.638;2023-09-18T11:58:46;1.08;;;0.98;;
10463;SDS011;5279;42.048;24.638;2023-09-18T12:01:13;1.52;;;1.10;;
10463;SDS011;5279;42.048;24.638;2023-09-18T12:03:44;1.60;;;1.40;;
10463;SDS011;5279;42.048;24.638;2023-09-18T12:06:13;3.33;;;1.75;;
10463;SDS011;5279;42.048;24.638;2023-09-18T12:08:41;2.85;;;1.63;;
10463;SDS011;5279;42.048;24.638;2023-09-18T12:11:08;1.80;;;1.50;;
10463;SDS011;5279;42.048;24.638;2023-09-18T12:13:35;1.58;;;1.48;;
10463;SDS011;5279;42.048;24.638;2023-09-18T12:16:08;2.92;;;1.27;;
10463;SDS011;5279;42.048;24.638;2023-09-18T12:18:36;2.97;;;1.40;;
10463;SDS011;5279;42.048;24.638;2023-09-18T12:21:05;2.55;;;1.63;;
10463;SDS011;5279;42.048;24.638;2023-09-18T12:23:41;1.50;;;1.40;;
10463;SDS011;5279;42.048;24.638;2023-09-18T12:26:10;1.48;;;1.38;;
10463;SDS011;5279;42.048;24.638;2023-09-18T12:28:39;2.95;;;1.52;;
10463;SDS011;5279;42.048;24.638;2023-09-18T12:31:09;1.42;;;1.33;;
10463;SDS011;5279;42.048;24.638;2023-09-18T12:33:37;2.42;;;1.52;;
10463;SDS011;5279;42.048;24.638;2023-09-18T12:36:05;1.48;;;1.33;;
10463;SDS011;5279;42.048;24.638;2023-09-18T12:38:34;3.63;;;1.40;;
10463;SDS011;5279;42.048;24.638;2023-09-18T12:41:04;3.03;;;1.38;;
10463;SDS011;5279;42.048;24.638;2023-09-18T12:43:36;3.42;;;1.38;;
10463;SDS011;5279;42.048;24.638;2023-09-18T12:46:07;11.13;;;7.13;;
10463;SDS011;5279;42.048;24.638;2023-09-18T12:48:38;11.07;;;6.80;;
10463;SDS011;5279;42.048;24.638;2023-09-18T12:51:12;6.35;;;5.28;;
10463;SDS011;5279;42.048;24.638;2023-09-18T12:53:58;1.80;;;1.70;;
10463;SDS011;5279;42.048;24.638;2023-09-18T12:56:27;3.90;;;3.20;;
10463;SDS011;5279;42.048;24.638;2023-09-18T12:58:57;2.00;;;1.75;;
10463;SDS011;5279;42.048;24.638;2023-09-18T13:01:24;1.65;;;1.55;;
10463;SDS011;5279;42.048;24.638;2023-09-18T13:03:54;3.22;;;1.45;;
10463;SDS011;5279;42.048;24.638;2023-09-18T13:06:22;2.90;;;1.40;;
10463;SDS011;5279;42.048;24.638;2023-09-18T13:08:49;1.60;;;1.50;;
10463;SDS011;5279;42.048;24.638;2023-09-18T13:11:21;2.35;;;1.70;;
10463;SDS011;5279;42.048;24.638;2023-09-18T13:13:56;4.28;;;1.55;;
10463;SDS011;5279;42.048;24.638;2023-09-18T13:16:29;2.30;;;1.52;;
10463;SDS011;5279;42.048;24.638;2023-09-18T13:18:58;2.42;;;1.85;;
10463;SDS011;5279;42.048;24.638;2023-09-18T13:21:30;1.73;;;1.35;;
10463;SDS011;5279;42.048;24.638;2023-09-18T13:24:01;1.63;;;1.52;;
10463;SDS011;5279;42.048;24.638;2023-09-18T13:26:31;1.40;;;1.23;;
10463;SDS011;5279;42.048;24.638;2023-09-18T13:28:59;1.58;;;1.48;;
10463;SDS011;5279;42.048;24.638;2023-09-18T13:31:28;1.95;;;1.25;;
10463;SDS011;5279;42.048;24.638;2023-09-18T13:33:56;1.38;;;1.13;;
10463;SDS011;5279;42.048;24.638;2023-09-18T13:36:23;2.95;;;1.30;;
10463;SDS011;5279;42.048;24.638;2023-09-18T13:38:52;1.55;;;1.45;;
10463;SDS011;5279;42.048;24.638;2023-09-18T13:41:19;2.20;;;1.65;;
10463;SDS011;5279;42.048;24.638;2023-09-18T13:43:46;1.33;;;1.20;;
10463;SDS011;5279;42.048;24.638;2023-09-18T13:46:15;3.22;;;1.38;;
10463;SDS011;5279;42.048;24.638;2023-09-18T13:48:42;1.73;;;1.60;;
10463;SDS011;5279;42.048;24.638;2023-09-18T13:51:10;1.95;;;1.83;;
10463;SDS011;5279;42.048;24.638;2023-09-18T13:53:37;4.15;;;2.20;;
10463;SDS011;5279;42.048;24.638;2023-09-18T13:56:08;2.72;;;1.70;;
10463;SDS011;5279;42.048;24.638;2023-09-18T13:58:35;2.05;;;1.77;;
10463;SDS011;5279;42.048;24.638;2023-09-18T14:01:06;2.67;;;1.67;;
10463;SDS011;5279;42.048;24.638;2023-09-18T14:03:34;2.53;;;1.70;;
10463;SDS011;5279;42.048;24.638;2023-09-18T14:06:02;1.67;;;1.58;;
10463;SDS011;5279;42.048;24.638;2023-09-18T14:08:30;1.67;;;1.55;;
10463;SDS011;5279;42.048;24.638;2023-09-18T14:10:58;2.10;;;1.50;;
10463;SDS011;5279;42.048;24.638;2023-09-18T14:13:25;15.40;;;1.95;;
10463;SDS011;5279;42.048;24.638;2023-09-18T14:15:52;1.60;;;1.45;;
10463;SDS011;5279;42.048;24.638;2023-09-18T14:18:21;2.30;;;1.38;;
10463;SDS011;5279;42.048;24.638;2023-09-18T14:20:50;4.78;;;1.30;;
10463;SDS011;5279;42.048;24.638;2023-09-18T14:23:17;1.83;;;1.50;;
10463;SDS011;5279;42.048;24.638;2023-09-18T14:25:44;1.83;;;1.73;;
10463;SDS011;5279;42.048;24.638;2023-09-18T14:28:11;1.58;;;1.48;;
10463;SDS011;5279;42.048;24.638;2023-09-18T14:30:41;3.22;;;1.70;;
10463;SDS011;5279;42.048;24.638;2023-09-18T14:33:11;3.05;;;1.65;;
10463;SDS011;5279;42.048;24.638;2023-09-18T14:35:39;2.00;;;1.60;;
10463;SDS011;5279;42.048;24.638;2023-09-18T14:38:15;2.27;;;1.90;;
10463;SDS011;5279;42.048;24.638;2023-09-18T14:40:42;2.17;;;1.67;;
10463;SDS011;5279;42.048;24.638;2023-09-18T14:43:09;2.03;;;1.90;;
10463;SDS011;5279;42.048;24.638;2023-09-18T14:45:36;3.37;;;1.80;;
10463;SDS011;5279;42.048;24.638;2023-09-18T14:48:05;3.60;;;1.90;;
10463;SDS011;5279;42.048;24.638;2023-09-18T14:50:33;2.20;;;2.00;;
10463;SDS011;5279;42.048;24.638;2023-09-18T14:53:00;4.13;;;1.80;;
10463;SDS011;5279;42.048;24.638;2023-09-18T14:55:30;2.70;;;1.90;;
10463;SDS011;5279;42.048;24.638;2023-09-18T14:57:57;2.07;;;1.87;;
10463;SDS011;5279;42.048;24.638;2023-09-18T15:00:24;3.47;;;1.90;;
10463;SDS011;5279;42.048;24.638;2023-09-18T15:02:51;2.20;;;1.90;;